Time;durP1;ratioP1;P1;durP2;ratioP2;P2;SDS_P1;SDS_P2;PMS_P1;PMS_P2;Temp;Humidity;BMP_temperature;BMP_pressure;BME280_temperature;BME280_humidity;BME280_pressure;Samples;Min_cycle;Max_cycle;Signal;HPM_P1;HPM_P2
2023/08/21 00:04:01;;;;;;;8.30;7.60;;;28.70;65.30;;;;;;221591;1250;24202;-52
2023/08/21 00:09:04;;;;;;;8.30;7.70;;;28.60;65.20;;;;;;221703;1271;22528;-51
2023/08/21 00:14:07;;;;;;;8.90;7.80;;;28.70;65.30;;;;;;221656;1266;24094;-50
2023/08/21 00:19:10;;;;;;;8.40;7.80;;;28.70;65.30;;;;;;221837;1268;24233;-50
2023/08/21 00:24:13;;;;;;;8.00;7.30;;;28.60;65.10;;;;;;221563;1267;22752;-50
2023/08/21 00:29:16;;;;;;;8.30;7.80;;;28.60;65.10;;;;;;222100;1264;24281;-53
2023/08/21 00:34:19;;;;;;;7.70;7.10;;;28.60;65.00;;;;;;221671;1271;22526;-48
2023/08/21 00:39:22;;;;;;;8.70;8.00;;;28.60;65.00;;;;;;221783;1264;22548;-51
2023/08/21 00:44:25;;;;;;;7.50;6.90;;;28.60;64.90;;;;;;221819;1264;25518;-51
2023/08/21 00:49:29;;;;;;;7.80;7.20;;;28.60;65.00;;;;;;221832;1264;22543;-51
2023/08/21 00:54:32;;;;;;;8.30;7.70;;;28.60;65.00;;;;;;221809;1271;23784;-54
2023/08/21 00:59:35;;;;;;;8.20;7.50;;;28.60;64.90;;;;;;221625;1269;22528;-49
2023/08/21 01:04:39;;;;;;;7.70;7.10;;;28.50;65.20;;;;;;221866;1270;24062;-49
2023/08/21 01:09:50;;;;;;;7.60;7.00;;;28.60;64.90;;;;;;221721;1266;22583;-51
2023/08/21 01:14:58;;;;;;;8.10;7.60;;;28.50;65.60;;;;;;222005;1269;22991;-49
2023/08/21 01:20:03;;;;;;;8.60;7.80;;;28.50;65.00;;;;;;221952;1271;24209;-49
2023/08/21 01:25:07;;;;;;;8.70;8.00;;;28.50;65.10;;;;;;221864;1270;24201;-48
2023/08/21 01:30:10;;;;;;;8.10;7.30;;;28.50;65.00;;;;;;222069;1267;22519;-47
2023/08/21 01:35:14;;;;;;;8.20;7.40;;;28.50;65.50;;;;;;221910;1270;22541;-52
2023/08/21 01:40:23;;;;;;;7.60;7.00;;;28.40;65.20;;;;;;222000;1267;22530;-48
2023/08/21 01:45:26;;;;;;;8.10;7.50;;;28.40;65.10;;;;;;221783;1255;23022;-54
2023/08/21 01:50:29;;;;;;;8.70;7.90;;;28.50;65.50;;;;;;221941;1263;24256;-51
2023/08/21 01:55:32;;;;;;;7.70;7.10;;;28.40;65.10;;;;;;221746;1264;23584;-53
2023/08/21 02:00:35;;;;;;;8.50;7.80;;;28.40;65.10;;;;;;221914;1264;22773;-52
2023/08/21 02:05:42;;;;;;;7.50;6.90;;;28.40;65.10;;;;;;221798;1267;22676;-49
2023/08/21 02:10:50;;;;;;;8.10;7.40;;;28.40;65.20;;;;;;221940;1261;22531;-50
2023/08/21 02:15:53;;;;;;;8.10;7.50;;;28.40;65.30;;;;;;222009;1270;24250;-47
2023/08/21 02:20:56;;;;;;;8.70;7.70;;;28.40;65.30;;;;;;221767;1267;22830;-50
2023/08/21 02:25:59;;;;;;;8.30;7.40;;;28.30;65.50;;;;;;221894;1267;27632;-47
2023/08/21 02:31:02;;;;;;;8.60;8.00;;;28.20;65.80;;;;;;221783;1264;22513;-50
2023/08/21 02:36:08;;;;;;;8.70;8.00;;;28.10;66.10;;;;;;221929;1264;22533;-47
2023/08/21 02:41:11;;;;;;;10.10;9.30;;;28.10;66.30;;;;;;221906;1270;22537;-47
2023/08/21 02:46:14;;;;;;;11.40;10.30;;;28.10;66.60;;;;;;221898;1270;22540;-50
2023/08/21 02:51:19;;;;;;;10.50;9.60;;;28.00;67.00;;;;;;221826;1255;22909;-51
2023/08/21 02:56:21;;;;;;;10.50;9.60;;;28.00;67.30;;;;;;221573;1267;22579;-52
2023/08/21 03:01:24;;;;;;;11.30;10.20;;;28.00;67.70;;;;;;221668;1249;24198;-49
2023/08/21 03:06:27;;;;;;;11.10;9.80;;;28.10;67.40;;;;;;221695;1260;22545;-51
2023/08/21 03:11:30;;;;;;;11.30;10.30;;;28.10;67.60;;;;;;221679;1267;22643;-51
2023/08/21 03:16:33;;;;;;;11.30;10.30;;;28.10;67.30;;;;;;221834;1270;22531;-51
2023/08/21 03:21:36;;;;;;;10.80;9.80;;;28.20;67.20;;;;;;221741;1264;24996;-51
2023/08/21 03:26:39;;;;;;;10.40;9.40;;;28.20;67.30;;;;;;221982;1270;196823;-51
2023/08/21 03:31:42;;;;;;;10.00;9.20;;;28.20;67.50;;;;;;221911;1267;22541;-53
2023/08/21 03:36:45;;;;;;;10.40;9.50;;;28.10;68.00;;;;;;221563;1267;22535;-51
2023/08/21 03:41:48;;;;;;;10.40;9.50;;;28.00;68.30;;;;;;221817;1267;24201;-49
2023/08/21 03:46:51;;;;;;;9.80;9.00;;;28.00;68.60;;;;;;221809;1267;25335;-49
2023/08/21 03:51:54;;;;;;;11.60;10.50;;;28.00;68.80;;;;;;221865;1269;22599;-51
2023/08/21 03:56:57;;;;;;;10.60;9.70;;;28.00;69.20;;;;;;221854;1271;23336;-50
2023/08/21 04:02:00;;;;;;;10.40;9.60;;;27.90;69.40;;;;;;221799;1257;22725;-47
2023/08/21 04:07:04;;;;;;;9.90;9.10;;;27.90;69.40;;;;;;221934;1264;22714;-49
2023/08/21 04:12:07;;;;;;;10.20;9.30;;;27.90;69.50;;;;;;222011;1264;22539;-53
2023/08/21 04:17:10;;;;;;;9.70;8.90;;;27.80;69.80;;;;;;221962;1259;22551;-47
2023/08/21 04:22:13;;;;;;;9.70;8.90;;;27.90;69.70;;;;;;221941;1261;22534;-51
2023/08/21 04:27:17;;;;;;;9.10;8.20;;;27.80;69.40;;;;;;222004;1268;22832;-50
2023/08/21 04:32:21;;;;;;;9.70;8.90;;;27.80;69.50;;;;;;221896;1261;24611;-55
2023/08/21 04:37:24;;;;;;;10.70;8.90;;;27.80;69.60;;;;;;221581;1264;24372;-50
2023/08/21 04:42:28;;;;;;;9.70;9.00;;;27.80;69.40;;;;;;221991;1267;22646;-49
2023/08/21 04:47:31;;;;;;;9.20;8.50;;;27.80;69.30;;;;;;221634;1264;22541;-50
2023/08/21 04:52:35;;;;;;;9.30;8.60;;;27.80;69.40;;;;;;221843;1267;24282;-51
2023/08/21 04:57:38;;;;;;;9.30;8.60;;;27.80;69.40;;;;;;222031;1264;24083;-47
2023/08/21 05:02:43;;;;;;;10.30;9.30;;;27.70;69.10;;;;;;221792;1264;22542;-50
2023/08/21 05:07:47;;;;;;;10.60;9.50;;;27.70;69.00;;;;;;221941;1260;24244;-51
2023/08/21 05:12:50;;;;;;;10.30;9.40;;;27.60;68.90;;;;;;221870;1271;24200;-51
2023/08/21 05:17:53;;;;;;;10.90;9.90;;;27.60;68.70;;;;;;221932;1264;22519;-47
2023/08/21 05:22:57;;;;;;;10.60;9.90;;;27.60;68.60;;;;;;222073;1270;24118;-50
2023/08/21 05:28:00;;;;;;;10.20;9.30;;;27.60;68.50;;;;;;221958;1255;24250;-47
2023/08/21 05:33:03;;;;;;;9.90;9.10;;;27.60;68.20;;;;;;221817;1257;24287;-48
2023/08/21 05:38:07;;;;;;;9.50;8.70;;;27.60;67.90;;;;;;221955;1269;22519;-52
2023/08/21 05:43:10;;;;;;;9.40;8.70;;;27.60;67.40;;;;;;222055;1268;22524;-51
2023/08/21 05:48:18;;;;;;;8.10;7.30;;;27.70;67.20;;;;;;221683;1270;22659;-47
2023/08/21 05:53:21;;;;;;;8.30;7.70;;;27.70;67.00;;;;;;221873;1267;22791;-50
2023/08/21 05:58:29;;;;;;;8.20;7.60;;;27.70;66.80;;;;;;221924;1264;24061;-49
2023/08/21 06:03:32;;;;;;;7.00;6.50;;;27.70;66.40;;;;;;221939;1267;23905;-50
2023/08/21 06:09:04;;;;;;;7.50;6.90;;;27.70;66.00;;;;;;221781;1264;24275;-50
2023/08/21 06:14:07;;;;;;;7.00;6.50;;;27.70;65.60;;;;;;222042;1265;22789;-51
2023/08/21 06:19:10;;;;;;;6.60;6.10;;;27.70;65.60;;;;;;221728;1267;24977;-53
2023/08/21 06:24:13;;;;;;;6.70;6.20;;;27.70;65.50;;;;;;221848;1266;22520;-49
2023/08/21 06:29:17;;;;;;;6.30;5.90;;;27.70;65.70;;;;;;221699;1267;24034;-49
2023/08/21 06:34:21;;;;;;;6.20;5.60;;;27.80;65.30;;;;;;221564;1267;22600;-49
2023/08/21 06:39:26;;;;;;;7.70;5.30;;;27.50;65.20;;;;;;221249;1250;22535;-49
2023/08/21 06:44:29;;;;;;;5.10;4.70;;;27.30;65.50;;;;;;222769;1269;22628;-51
2023/08/21 06:49:31;;;;;;;5.10;4.70;;;27.20;65.50;;;;;;221341;1255;24829;-51
2023/08/21 06:54:34;;;;;;;4.70;4.40;;;27.20;65.00;;;;;;221504;1267;24251;-49
2023/08/21 06:59:38;;;;;;;5.10;4.60;;;27.00;65.20;;;;;;221834;1267;24154;-53
2023/08/21 07:04:43;;;;;;;5.20;4.80;;;27.00;65.90;;;;;;221699;1266;22562;-50
2023/08/21 07:09:46;;;;;;;7.40;4.30;;;27.00;65.60;;;;;;221698;1247;24294;-50
2023/08/21 07:14:49;;;;;;;8.70;4.50;;;27.00;66.00;;;;;;221453;1270;23945;-53
2023/08/21 07:19:52;;;;;;;5.30;4.10;;;27.00;66.00;;;;;;221661;1264;22633;-53
2023/08/21 07:24:56;;;;;;;9.90;4.60;;;27.10;66.10;;;;;;221946;1271;24201;-52
2023/08/21 07:29:59;;;;;;;6.60;4.20;;;27.00;66.40;;;;;;221623;1267;22647;-52
2023/08/21 07:35:03;;;;;;;5.70;4.70;;;27.10;66.10;;;;;;221478;1265;26359;-51
2023/08/21 07:40:09;;;;;;;5.20;4.10;;;27.20;66.30;;;;;;221787;1250;24775;-53
2023/08/21 07:45:12;;;;;;;7.80;4.90;;;27.20;66.30;;;;;;221910;1270;22546;-52
2023/08/21 07:50:16;;;;;;;5.90;4.70;;;27.40;66.00;;;;;;221814;1255;22527;-53
2023/08/21 07:55:19;;;;;;;6.50;5.90;;;27.50;66.10;;;;;;221574;1270;22604;-58
2023/08/21 08:00:22;;;;;;;5.80;4.50;;;27.50;65.90;;;;;;221732;1265;23922;-56
2023/08/21 08:05:25;;;;;;;6.10;4.40;;;27.50;65.90;;;;;;221909;1266;22636;-55
2023/08/21 08:10:28;;;;;;;5.80;4.80;;;27.50;65.50;;;;;;221659;1269;22532;-56
2023/08/21 08:15:31;;;;;;;5.30;4.70;;;27.60;66.10;;;;;;221872;1265;22517;-56
2023/08/21 08:20:34;;;;;;;5.40;4.70;;;27.80;65.70;;;;;;221929;1269;22527;-55
2023/08/21 08:25:37;;;;;;;5.40;4.60;;;27.90;65.70;;;;;;221850;1256;25568;-56
2023/08/21 08:30:40;;;;;;;5.10;4.70;;;27.90;65.50;;;;;;221835;1258;22574;-56
2023/08/21 08:35:43;;;;;;;6.10;4.10;;;27.90;65.50;;;;;;221757;1264;22633;-55
2023/08/21 08:40:47;;;;;;;6.70;4.20;;;27.90;65.30;;;;;;221683;1268;22605;-55
2023/08/21 08:45:52;;;;;;;4.30;4.00;;;27.80;65.30;;;;;;221572;1264;24495;-56
2023/08/21 08:50:55;;;;;;;4.40;3.90;;;27.80;65.40;;;;;;221956;1264;25428;-56
2023/08/21 08:56:01;;;;;;;4.10;3.80;;;27.90;65.30;;;;;;221601;1267;24208;-57
2023/08/21 09:01:03;;;;;;;4.20;3.80;;;27.80;66.10;;;;;;221927;1268;22780;-58
2023/08/21 09:06:06;;;;;;;3.90;3.30;;;27.90;65.30;;;;;;221555;1268;22520;-58
2023/08/21 09:11:10;;;;;;;4.40;4.00;;;27.90;64.60;;;;;;221843;1266;22573;-56
2023/08/21 09:16:14;;;;;;;5.30;3.90;;;27.90;65.10;;;;;;221960;1265;22525;-55
2023/08/21 09:21:18;;;;;;;4.40;3.30;;;27.90;64.90;;;;;;222258;1267;22632;-59
2023/08/21 09:26:22;;;;;;;3.90;3.60;;;27.80;64.50;;;;;;221843;1271;24274;-57
2023/08/21 09:31:33;;;;;;;4.30;3.20;;;27.70;64.20;;;;;;221899;1255;22535;-55
2023/08/21 09:36:35;;;;;;;;;;;27.70;63.90;;;;;;221785;1266;22579;-56
2023/08/21 09:41:38;;;;;;;9.50;4.60;;;27.60;63.30;;;;;;221911;1255;22530;-56
2023/08/21 09:46:41;;;;;;;3.80;3.20;;;27.50;63.30;;;;;;221855;1264;25238;-55
2023/08/21 09:51:44;;;;;;;3.40;3.00;;;27.60;63.10;;;;;;221908;1271;24215;-56
2023/08/21 09:56:50;;;;;;;3.20;3.00;;;27.60;63.00;;;;;;221767;1267;22520;-57
2023/08/21 10:01:53;;;;;;;3.30;2.80;;;27.60;62.90;;;;;;221814;1267;25722;-57
2023/08/21 10:06:58;;;;;;;2.70;2.50;;;27.60;62.60;;;;;;221951;1271;22655;-55
2023/08/21 10:12:02;;;;;;;6.40;3.20;;;27.60;62.30;;;;;;221739;1270;25333;-57
2023/08/21 10:17:05;;;;;;;4.20;2.90;;;27.60;62.10;;;;;;222070;1271;24962;-57
2023/08/21 10:22:08;;;;;;;4.00;3.00;;;27.70;62.70;;;;;;221853;1256;24241;-56
2023/08/21 10:27:11;;;;;;;5.20;2.90;;;27.70;62.20;;;;;;221720;1270;23911;-57
2023/08/21 10:32:22;;;;;;;4.30;2.60;;;27.70;62.30;;;;;;221666;1268;24768;-55
2023/08/21 10:37:25;;;;;;;5.00;2.90;;;27.90;61.40;;;;;;221983;1256;22517;-55
2023/08/21 10:42:39;;;;;;;3.00;2.80;;;27.80;60.90;;;;;;221759;1270;22517;-56
2023/08/21 10:47:46;;;;;;;5.20;2.70;;;27.70;60.90;;;;;;221631;1264;24246;-55
2023/08/21 10:52:51;;;;;;;7.20;3.10;;;27.80;61.00;;;;;;221874;1266;24400;-53
2023/08/21 10:57:54;;;;;;;3.20;2.70;;;27.80;60.90;;;;;;221845;1267;24322;-56
2023/08/21 11:02:57;;;;;;;5.20;2.90;;;27.80;61.10;;;;;;221675;1265;23933;-56
2023/08/21 11:08:00;;;;;;;3.00;2.70;;;27.80;61.20;;;;;;221823;1265;24316;-55
2023/08/21 11:13:06;;;;;;;4.30;3.20;;;27.90;61.20;;;;;;221755;1270;24983;-57
2023/08/21 11:18:09;;;;;;;3.30;3.00;;;28.00;61.60;;;;;;221867;1270;22535;-58
2023/08/21 11:23:12;;;;;;;3.30;2.80;;;28.00;61.10;;;;;;221818;1264;22931;-55
2023/08/21 11:28:16;;;;;;;4.40;3.30;;;28.10;60.90;;;;;;221698;1267;25463;-55
2023/08/21 11:33:19;;;;;;;4.50;3.30;;;28.30;60.40;;;;;;221907;1266;22523;-56
2023/08/21 11:38:23;;;;;;;6.00;3.50;;;28.30;61.60;;;;;;221820;1265;22516;-56
2023/08/21 11:43:41;;;;;;;4.60;3.20;;;28.40;61.20;;;;;;222044;1270;24424;-56
2023/08/21 11:48:45;;;;;;;4.10;3.70;;;28.50;60.90;;;;;;222020;1267;22520;-56
2023/08/21 11:53:48;;;;;;;3.80;3.50;;;28.70;60.70;;;;;;221982;1271;22546;-55
2023/08/21 11:58:51;;;;;;;5.30;3.60;;;28.80;60.90;;;;;;221539;1255;22523;-56
2023/08/21 12:03:54;;;;;;;3.70;3.40;;;28.60;60.90;;;;;;221875;1269;25573;-56
2023/08/21 12:09:00;;;;;;;5.30;4.20;;;28.70;61.70;;;;;;221967;1270;22596;-54
2023/08/21 12:14:02;;;;;;;7.20;4.40;;;28.70;61.50;;;;;;221571;1267;24229;-55
2023/08/21 12:19:09;;;;;;;4.50;4.10;;;28.90;61.50;;;;;;221735;1259;24385;-56
2023/08/21 12:24:11;;;;;;;4.90;4.40;;;28.80;61.40;;;;;;222089;1268;23917;-57
2023/08/21 12:29:14;;;;;;;4.60;4.30;;;28.80;61.50;;;;;;221942;1271;23897;-55
2023/08/21 12:34:17;;;;;;;5.10;4.10;;;28.90;61.30;;;;;;221966;1256;22521;-59
2023/08/21 12:39:21;;;;;;;5.20;4.50;;;28.90;61.20;;;;;;221886;1260;24182;-55
2023/08/21 12:44:24;;;;;;;4.60;4.20;;;28.70;61.60;;;;;;221758;1271;22658;-55
2023/08/21 12:49:27;;;;;;;5.10;4.60;;;28.80;61.70;;;;;;221748;1271;22642;-56
2023/08/21 12:54:30;;;;;;;5.00;4.30;;;28.90;61.60;;;;;;221833;1265;22570;-56
2023/08/21 12:59:33;;;;;;;5.10;4.60;;;29.10;61.50;;;;;;221556;1271;22649;-57
2023/08/21 13:04:36;;;;;;;4.90;4.50;;;29.20;61.30;;;;;;221840;1266;24255;-56
2023/08/21 13:09:39;;;;;;;4.80;4.40;;;29.20;61.50;;;;;;221941;1271;22527;-57
2023/08/21 13:14:42;;;;;;;5.40;4.90;;;29.10;61.90;;;;;;221648;1268;22522;-56
2023/08/21 13:19:45;;;;;;;5.00;4.60;;;29.10;61.80;;;;;;221529;1271;22516;-56
2023/08/21 13:24:48;;;;;;;5.60;5.00;;;29.00;62.20;;;;;;221748;1271;22747;-57
2023/08/21 13:29:51;;;;;;;5.40;4.90;;;28.90;62.40;;;;;;221737;1265;22536;-56
2023/08/21 13:34:54;;;;;;;5.40;4.90;;;28.90;62.90;;;;;;221844;1263;24214;-55
2023/08/21 13:39:59;;;;;;;5.60;5.10;;;28.90;63.00;;;;;;221768;1271;22530;-60
2023/08/21 13:45:03;;;;;;;4.90;4.50;;;28.80;63.00;;;;;;221854;1268;24365;-58
2023/08/21 13:50:07;;;;;;;5.20;4.80;;;28.80;63.10;;;;;;221880;1265;25245;-57
2023/08/21 13:55:11;;;;;;;5.60;4.90;;;28.90;63.10;;;;;;221957;1263;22642;-58
2023/08/21 14:00:17;;;;;;;5.50;5.00;;;28.90;63.40;;;;;;221961;1271;22649;-57
2023/08/21 14:05:20;;;;;;;5.50;5.10;;;28.80;62.80;;;;;;221692;1260;22550;-56
2023/08/21 14:10:23;;;;;;;4.40;4.10;;;28.80;62.70;;;;;;221921;1267;22579;-59
2023/08/21 14:15:26;;;;;;;5.80;4.30;;;28.80;62.70;;;;;;221804;1258;22521;-57
2023/08/21 14:20:29;;;;;;;4.50;4.10;;;28.80;62.80;;;;;;221675;1271;22610;-56
2023/08/21 14:25:32;;;;;;;4.60;4.20;;;28.80;62.60;;;;;;221762;1270;24220;-58
2023/08/21 14:30:35;;;;;;;5.40;4.00;;;28.80;61.80;;;;;;221750;1256;23753;-55
2023/08/21 14:35:37;;;;;;;119.10;41.80;;;28.80;61.10;;;;;;221635;1269;23980;-58
2023/08/21 14:40:40;;;;;;;16.00;7.90;;;28.80;61.40;;;;;;221591;1268;22534;-56
2023/08/21 14:45:43;;;;;;;38.30;15.80;;;28.70;60.80;;;;;;221761;1265;23932;-58
2023/08/21 14:50:46;;;;;;;35.30;15.50;;;28.70;60.90;;;;;;221743;1270;22531;-57
2023/08/21 14:55:49;;;;;;;22.80;10.90;;;28.80;60.70;;;;;;222018;1271;24144;-55
2023/08/21 15:00:58;;;;;;;20.30;9.10;;;28.80;60.50;;;;;;221908;1269;23910;-55
2023/08/21 15:06:00;;;;;;;18.70;10.20;;;28.70;60.30;;;;;;221601;1263;22608;-55
2023/08/21 15:11:03;;;;;;;21.20;7.80;;;28.80;60.00;;;;;;221706;1249;24230;-55
2023/08/21 15:16:07;;;;;;;12.10;7.70;;;28.80;59.80;;;;;;221990;1270;24388;-56
2023/08/21 15:21:10;;;;;;;14.50;7.10;;;28.80;59.40;;;;;;221926;1271;22571;-55
2023/08/21 15:26:13;;;;;;;12.80;7.10;;;28.80;59.70;;;;;;221843;1269;172246;-56
2023/08/21 15:31:15;;;;;;;12.90;6.60;;;28.80;59.20;;;;;;221799;1258;22526;-56
2023/08/21 15:36:18;;;;;;;12.80;6.10;;;28.80;59.00;;;;;;221784;1256;23901;-56
2023/08/21 15:41:21;;;;;;;6.40;5.20;;;28.80;58.90;;;;;;221820;1271;22649;-57
2023/08/21 15:46:27;;;;;;;5.50;4.80;;;28.80;58.60;;;;;;221671;1271;22620;-57
2023/08/21 15:51:30;;;;;;;6.10;4.60;;;28.80;58.70;;;;;;221726;1259;25359;-56
2023/08/21 15:56:33;;;;;;;8.40;5.10;;;28.80;58.30;;;;;;221768;1249;22569;-55
2023/08/21 16:01:35;;;;;;;7.40;4.90;;;28.80;58.00;;;;;;221824;1268;22532;-56
2023/08/21 16:06:40;;;;;;;9.40;5.90;;;28.80;58.50;;;;;;221884;1271;22610;-58
2023/08/21 16:11:42;;;;;;;9.10;6.00;;;28.80;59.40;;;;;;221679;1268;22526;-60
2023/08/21 16:16:45;;;;;;;7.20;5.20;;;28.80;61.00;;;;;;221945;1269;22533;-56
2023/08/21 16:21:49;;;;;;;7.90;5.40;;;28.80;59.20;;;;;;222075;1271;22650;-57
2023/08/21 16:26:52;;;;;;;7.80;4.60;;;28.80;58.80;;;;;;221726;1271;25407;-55
2023/08/21 16:31:55;;;;;;;6.40;4.50;;;28.80;58.70;;;;;;221780;1271;22776;-56
2023/08/21 16:36:58;;;;;;;5.00;3.90;;;28.80;58.30;;;;;;221705;1268;23095;-59
2023/08/21 16:42:01;;;;;;;5.40;4.30;;;28.70;58.40;;;;;;221879;1270;22534;-55
2023/08/21 16:47:06;;;;;;;7.00;3.80;;;28.80;58.20;;;;;;221712;1260;22540;-58
2023/08/21 16:52:09;;;;;;;4.10;3.50;;;28.80;58.00;;;;;;221877;1271;22524;-56
2023/08/21 16:57:12;;;;;;;4.80;3.50;;;28.70;58.10;;;;;;221859;1268;22529;-54
2023/08/21 17:02:20;;;;;;;4.90;3.30;;;28.70;57.80;;;;;;221629;1263;22646;-56
2023/08/21 17:07:24;;;;;;;4.70;3.90;;;28.70;58.00;;;;;;221679;1271;24335;-54
2023/08/21 17:12:28;;;;;;;5.60;3.50;;;28.70;58.00;;;;;;222145;1271;22565;-57
2023/08/21 17:17:32;;;;;;;5.30;3.00;;;28.70;58.00;;;;;;221719;1271;22526;-55
2023/08/21 17:22:35;;;;;;;4.10;3.70;;;28.70;58.60;;;;;;221888;1268;22598;-55
2023/08/21 17:27:38;;;;;;;4.70;3.60;;;28.70;58.40;;;;;;221715;1271;24272;-58
2023/08/21 17:32:42;;;;;;;4.20;3.30;;;28.70;58.40;;;;;;221888;1271;25335;-55
2023/08/21 17:37:47;;;;;;;4.00;3.70;;;28.70;58.60;;;;;;221949;1263;24349;-56
2023/08/21 17:42:51;;;;;;;3.90;3.20;;;28.60;58.60;;;;;;221917;1258;22550;-56
2023/08/21 17:47:55;;;;;;;3.20;3.00;;;28.70;59.00;;;;;;221846;1263;24201;-58
2023/08/21 17:53:02;;;;;;;4.50;3.40;;;28.70;58.70;;;;;;221874;1271;22517;-56
2023/08/21 17:58:06;;;;;;;4.10;3.10;;;28.70;58.90;;;;;;221842;1263;22525;-54
2023/08/21 18:03:10;;;;;;;4.60;3.70;;;28.70;59.00;;;;;;221998;1270;25360;-57
2023/08/21 18:08:14;;;;;;;3.80;3.50;;;28.70;59.30;;;;;;221963;1269;22523;-57
2023/08/21 18:13:18;;;;;;;6.20;3.70;;;28.70;59.40;;;;;;221947;1268;24211;-57
2023/08/21 18:18:22;;;;;;;4.00;3.60;;;28.70;59.60;;;;;;221924;1264;22566;-55
2023/08/21 18:23:29;;;;;;;4.30;3.70;;;28.70;60.10;;;;;;222089;1268;22751;-59
2023/08/21 18:28:32;;;;;;;4.30;3.90;;;28.70;59.60;;;;;;222004;1264;22525;-55
2023/08/21 18:33:36;;;;;;;5.10;4.30;;;28.60;60.40;;;;;;221790;1271;22523;-56
2023/08/21 18:38:41;;;;;;;3.90;3.60;;;28.60;60.70;;;;;;221933;1265;22508;-56
2023/08/21 18:43:45;;;;;;;4.40;4.00;;;28.60;60.60;;;;;;222082;1256;22533;-55
2023/08/21 18:48:48;;;;;;;4.60;4.00;;;28.50;60.60;;;;;;222145;1267;24093;-55
2023/08/21 18:53:51;;;;;;;4.30;4.00;;;28.60;60.80;;;;;;221805;1271;24210;-56
2023/08/21 18:58:55;;;;;;;3.70;3.40;;;28.50;60.70;;;;;;221836;1265;22751;-56
2023/08/21 19:03:59;;;;;;;4.50;4.10;;;28.50;60.80;;;;;;222110;1269;25341;-57
2023/08/21 19:09:05;;;;;;;4.30;4.00;;;28.60;61.00;;;;;;221830;1268;22887;-56
2023/08/21 19:14:09;;;;;;;5.30;4.70;;;28.60;61.00;;;;;;221434;1261;22653;-56
2023/08/21 19:19:14;;;;;;;6.50;4.30;;;28.60;61.00;;;;;;221462;1262;25630;-58
2023/08/21 19:24:22;;;;;;;5.80;4.60;;;28.50;61.00;;;;;;221404;1274;23985;-57
2023/08/21 19:29:26;;;;;;;5.30;4.90;;;28.50;61.00;;;;;;221372;1272;24360;-57
2023/08/21 19:34:30;;;;;;;5.30;4.80;;;28.50;61.00;;;;;;221531;1275;22623;-56
2023/08/21 19:39:35;;;;;;;4.70;4.30;;;28.50;60.70;;;;;;221204;1267;24387;-56
2023/08/21 19:44:40;;;;;;;5.50;4.50;;;28.40;61.20;;;;;;221335;1272;22578;-57
2023/08/21 19:49:45;;;;;;;6.00;4.50;;;28.50;61.60;;;;;;221405;1268;24390;-56
2023/08/21 19:54:51;;;;;;;7.50;4.60;;;28.50;61.20;;;;;;221944;1263;22552;-58
2023/08/21 19:59:55;;;;;;;4.50;4.20;;;28.40;61.20;;;;;;221664;1262;24216;-57
2023/08/21 20:05:04;;;;;;;5.50;3.80;;;28.40;61.20;;;;;;222103;1258;24799;-56
2023/08/21 20:10:14;;;;;;;4.80;4.40;;;28.40;61.20;;;;;;221969;1264;23161;-57
2023/08/21 20:15:18;;;;;;;4.60;4.20;;;28.40;61.20;;;;;;221955;1267;25410;-57
2023/08/21 20:20:25;;;;;;;3.90;3.60;;;28.40;61.40;;;;;;222011;1270;22528;-57
2023/08/21 20:25:28;;;;;;;5.00;4.10;;;28.30;61.30;;;;;;221884;1271;25710;-56
2023/08/21 20:30:32;;;;;;;4.10;3.70;;;28.40;61.40;;;;;;221895;1271;24201;-57
2023/08/21 20:35:36;;;;;;;4.70;4.20;;;28.30;61.50;;;;;;221888;1264;23946;-55
2023/08/21 20:40:40;;;;;;;6.00;3.60;;;28.40;61.60;;;;;;222037;1271;22539;-58
2023/08/21 20:45:43;;;;;;;5.90;4.10;;;28.30;61.90;;;;;;221922;1266;22535;-57
2023/08/21 20:50:48;;;;;;;4.90;4.50;;;28.30;61.90;;;;;;222131;1265;22523;-58
2023/08/21 20:55:59;;;;;;;4.70;4.10;;;28.30;61.60;;;;;;222009;1271;22618;-56
2023/08/21 21:01:02;;;;;;;3.60;3.30;;;28.30;61.50;;;;;;221944;1271;24247;-58
2023/08/21 21:06:05;;;;;;;3.90;3.50;;;28.30;61.50;;;;;;221850;1271;22631;-56
2023/08/21 21:11:08;;;;;;;3.90;3.60;;;28.30;61.50;;;;;;221905;1267;24236;-57
2023/08/21 21:16:11;;;;;;;3.80;3.50;;;28.30;61.50;;;;;;221890;1264;25265;-56
2023/08/21 21:21:14;;;;;;;4.00;3.60;;;28.30;61.60;;;;;;222014;1269;22563;-59
2023/08/21 21:26:18;;;;;;;7.60;3.90;;;28.30;61.50;;;;;;221770;1263;22550;-56
2023/08/21 21:31:21;;;;;;;4.50;3.60;;;28.20;61.40;;;;;;221904;1264;22531;-57
2023/08/21 21:36:24;;;;;;;3.80;3.50;;;28.20;61.40;;;;;;221736;1256;22536;-57
2023/08/21 21:41:27;;;;;;;4.20;3.80;;;28.20;61.40;;;;;;221976;1267;22528;-58
2023/08/21 21:46:30;;;;;;;3.60;3.40;;;28.20;61.40;;;;;;221939;1267;22618;-56
2023/08/21 21:51:33;;;;;;;4.50;3.80;;;28.20;61.50;;;;;;221946;1265;22531;-57
2023/08/21 21:56:37;;;;;;;3.90;3.40;;;28.20;62.30;;;;;;221533;1264;22804;-56
2023/08/21 22:01:40;;;;;;;3.50;3.30;;;28.20;61.70;;;;;;221913;1264;24341;-59
2023/08/21 22:06:44;;;;;;;4.50;3.70;;;28.20;61.80;;;;;;221673;1268;25097;-57
2023/08/21 22:11:48;;;;;;;3.80;3.50;;;28.10;61.70;;;;;;221998;1267;22542;-56
2023/08/21 22:16:51;;;;;;;3.80;3.50;;;28.10;61.80;;;;;;221768;1267;25255;-59
2023/08/21 22:21:54;;;;;;;5.70;4.20;;;28.20;61.80;;;;;;221865;1271;24766;-57
2023/08/21 22:26:57;;;;;;;5.80;3.80;;;28.10;61.70;;;;;;221997;1267;24757;-56
2023/08/21 22:32:00;;;;;;;4.30;3.90;;;28.10;61.60;;;;;;221842;1260;22695;-56
2023/08/21 22:37:05;;;;;;;5.10;3.50;;;28.10;61.60;;;;;;222029;1264;24209;-57
2023/08/21 22:42:08;;;;;;;4.60;4.20;;;28.10;61.80;;;;;;221652;1260;22566;-56
2023/08/21 22:47:12;;;;;;;5.90;3.90;;;28.00;61.80;;;;;;222075;1269;22550;-57
2023/08/21 22:52:15;;;;;;;4.70;4.30;;;28.00;62.20;;;;;;222027;1264;22534;-56
2023/08/21 22:57:18;;;;;;;4.60;4.20;;;28.00;61.80;;;;;;222029;1267;24311;-55
2023/08/21 23:02:21;;;;;;;4.90;4.30;;;28.00;61.80;;;;;;222040;1270;23250;-57
2023/08/21 23:07:25;;;;;;;4.80;4.30;;;28.00;61.70;;;;;;222138;1268;24283;-55
2023/08/21 23:12:28;;;;;;;5.20;4.80;;;28.00;61.60;;;;;;222270;1257;25252;-50
2023/08/21 23:17:31;;;;;;;4.80;4.40;;;28.00;61.50;;;;;;222506;1260;22545;-56
2023/08/21 23:22:34;;;;;;;4.50;4.10;;;28.00;61.60;;;;;;222391;1271;22521;-55
2023/08/21 23:27:38;;;;;;;4.50;4.00;;;28.00;61.50;;;;;;222243;1269;25244;-52
2023/08/21 23:32:42;;;;;;;4.80;4.40;;;28.00;61.70;;;;;;222324;1267;24345;-53
2023/08/21 23:37:45;;;;;;;4.70;4.30;;;28.00;61.50;;;;;;222099;1270;24259;-56
2023/08/21 23:42:48;;;;;;;4.30;3.90;;;27.90;61.50;;;;;;221846;1271;22604;-55
2023/08/21 23:47:52;;;;;;;4.60;4.20;;;27.90;61.80;;;;;;221669;1271;22528;-59
2023/08/21 23:52:56;;;;;;;4.90;4.00;;;27.90;61.60;;;;;;221848;1260;24816;-57
2023/08/21 23:58:04;;;;;;;3.80;3.50;;;27.90;61.80;;;;;;221742;1270;25283;-57
